createdAt,value
2022-12-01T00:01:21.231Z,1.10
2022-12-01T00:03:50.902Z,1.00
2022-12-01T00:06:20.561Z,1.10
2022-12-01T00:09:04.341Z,1.00
2022-12-01T00:11:32.953Z,1.30
2022-12-01T00:14:02.692Z,1.10
2022-12-01T00:16:31.650Z,1.30
2022-12-01T00:18:59.867Z,1.20
2022-12-01T00:21:28.865Z,1.27
2022-12-01T00:23:58.899Z,1.20
2022-12-01T00:26:27.926Z,1.00
2022-12-01T00:28:57.709Z,1.20
2022-12-01T00:31:28.482Z,0.90
2022-12-01T00:33:56.874Z,1.00
2022-12-01T00:36:25.452Z,1.17
2022-12-01T00:38:54.769Z,1.30
2022-12-01T00:41:23.846Z,1.10
2022-12-01T00:43:52.684Z,1.10
2022-12-01T00:46:20.725Z,1.10
2022-12-01T00:48:52.771Z,1.10
2022-12-01T00:51:20.720Z,1.20
2022-12-01T00:53:48.734Z,1.23
2022-12-01T00:56:16.772Z,1.10
2022-12-01T00:58:44.887Z,1.27
2022-12-01T01:01:12.993Z,1.30
2022-12-01T01:03:40.994Z,1.20
2022-12-01T01:06:12.359Z,1.10
2022-12-01T01:08:41.349Z,1.10
2022-12-01T01:11:10.041Z,1.10
2022-12-01T01:13:38.329Z,1.20
2022-12-01T01:16:10.215Z,1.20
2022-12-01T01:18:38.292Z,1.30
2022-12-01T01:21:10.193Z,1.13
2022-12-01T01:23:40.005Z,1.20
2022-12-01T01:26:10.041Z,1.30
2022-12-01T01:28:38.818Z,1.10
2022-12-01T01:31:07.563Z,1.20
2022-12-01T01:33:35.761Z,1.10
2022-12-01T01:36:05.186Z,1.40
2022-12-01T01:38:34.016Z,1.10
2022-12-01T01:41:04.621Z,1.20
2022-12-01T01:43:44.653Z,1.23
2022-12-01T01:46:14.566Z,1.10
2022-12-01T01:48:44.839Z,1.00
2022-12-01T01:51:15.749Z,1.10
2022-12-01T01:53:46.545Z,1.00
2022-12-01T01:56:16.179Z,0.80
2022-12-01T01:58:45.312Z,1.03
2022-12-01T02:01:13.395Z,1.00
2022-12-01T02:03:43.245Z,1.07
2022-12-01T02:06:12.579Z,1.10
2022-12-01T02:08:40.572Z,1.00
2022-12-01T02:11:48.529Z,1.20
2022-12-01T02:14:42.752Z,1.10
2022-12-01T02:17:21.335Z,1.20
2022-12-01T02:20:14.419Z,1.20
2022-12-01T02:22:54.944Z,1.20
2022-12-01T02:25:38.742Z,0.90
2022-12-01T02:28:27.551Z,0.90
2022-12-01T02:31:00.216Z,1.13
2022-12-01T02:33:36.814Z,1.20
2022-12-01T02:36:12.063Z,1.10
2022-12-01T02:38:46.479Z,1.20
2022-12-01T02:41:20.173Z,1.10
2022-12-01T02:43:58.586Z,1.00
2022-12-01T02:46:34.011Z,1.00
2022-12-01T02:49:09.430Z,0.80
2022-12-01T02:51:41.361Z,0.80
2022-12-01T02:54:10.188Z,0.90
2022-12-01T02:56:38.213Z,1.00
2022-12-01T02:59:11.188Z,1.20
2022-12-01T03:01:59.928Z,0.87
2022-12-01T03:04:40.564Z,0.90
2022-12-01T03:07:19.208Z,1.10
2022-12-01T03:10:01.075Z,0.97
2022-12-01T03:12:38.910Z,0.90
2022-12-01T03:15:12.307Z,1.00
2022-12-01T03:17:47.649Z,1.10
2022-12-01T03:20:20.239Z,1.00
2022-12-01T03:22:54.781Z,0.90
2022-12-01T03:25:26.483Z,1.00
2022-12-01T03:28:22.143Z,1.10
2022-12-01T03:30:47.162Z,0.90
2022-12-01T03:33:23.151Z,1.03
2022-12-01T03:35:56.849Z,1.20
2022-12-01T03:38:26.694Z,1.07
2022-12-01T03:41:00.697Z,1.10
2022-12-01T03:43:33.626Z,1.20
2022-12-01T03:46:08.707Z,0.97
2022-12-01T03:48:39.540Z,1.10
2022-12-01T03:51:15.265Z,1.20
2022-12-01T03:53:52.928Z,1.10
2022-12-01T03:56:23.548Z,1.00
2022-12-01T03:58:56.253Z,1.10
2022-12-01T04:01:24.741Z,1.00
2022-12-01T04:03:54.187Z,1.10
2022-12-01T04:06:22.173Z,1.10
2022-12-01T04:08:50.181Z,1.20
2022-12-01T04:11:35.659Z,1.10
2022-12-01T04:14:03.673Z,1.13
2022-12-01T04:16:31.910Z,1.07
2022-12-01T04:19:01.383Z,1.10
2022-12-01T04:21:29.397Z,1.10
2022-12-01T04:24:03.612Z,1.10
2022-12-01T04:26:33.781Z,1.30
2022-12-01T04:29:02.053Z,1.20
2022-12-01T04:31:30.226Z,1.20
2022-12-01T04:33:59.208Z,1.10
2022-12-01T04:36:31.235Z,1.10
2022-12-01T04:38:59.395Z,1.27
2022-12-01T04:41:27.438Z,0.97
2022-12-01T04:43:56.057Z,1.00
2022-12-01T04:46:24.379Z,1.00
2022-12-01T04:48:52.721Z,1.13
2022-12-01T04:51:22.457Z,1.10
2022-12-01T04:53:52.300Z,1.10
2022-12-01T04:56:20.863Z,1.00
2022-12-01T04:58:49.109Z,1.13
2022-12-01T05:01:19.449Z,0.90
2022-12-01T05:03:50.428Z,1.00
2022-12-01T05:06:20.488Z,0.90
2022-12-01T05:08:48.505Z,0.87
2022-12-01T05:11:18.974Z,0.90
2022-12-01T05:13:49.179Z,0.90
2022-12-01T05:16:20.227Z,0.80
2022-12-01T05:19:12.682Z,1.00
2022-12-01T05:21:39.750Z,0.90
2022-12-01T05:24:08.216Z,1.13
2022-12-01T05:26:37.982Z,0.90
2022-12-01T05:29:06.730Z,0.90
2022-12-01T05:31:35.537Z,1.00
2022-12-01T05:34:03.639Z,1.13
2022-12-01T05:36:31.621Z,0.90
2022-12-01T05:38:59.724Z,1.00
2022-12-01T05:41:27.758Z,1.20
2022-12-01T05:43:57.159Z,1.17
2022-12-01T05:46:25.203Z,1.20
2022-12-01T05:48:53.310Z,1.10
2022-12-01T05:51:21.422Z,1.10
2022-12-01T05:53:49.481Z,1.00
2022-12-01T05:56:17.605Z,1.00
2022-12-01T05:58:45.611Z,1.00
2022-12-01T06:01:14.980Z,1.10
2022-12-01T06:03:43.028Z,1.10
2022-12-01T06:06:11.105Z,1.20
2022-12-01T06:08:39.369Z,1.10
2022-12-01T06:11:07.613Z,0.90
2022-12-01T06:13:35.639Z,1.10
2022-12-01T06:16:05.655Z,1.20
2022-12-01T06:18:37.383Z,0.97
2022-12-01T06:21:07.654Z,1.10
2022-12-01T06:23:36.041Z,1.10
2022-12-01T06:26:04.191Z,0.97
2022-12-01T06:28:32.511Z,1.00
2022-12-01T06:31:03.549Z,0.80
2022-12-01T06:33:32.836Z,1.17
2022-12-01T06:36:04.265Z,1.10
2022-12-01T06:38:33.290Z,1.20
2022-12-01T06:41:01.630Z,1.20
2022-12-01T06:43:30.318Z,1.23
2022-12-01T06:46:02.136Z,1.00
2022-12-01T06:48:30.771Z,1.20
2022-12-01T06:50:58.911Z,1.10
2022-12-01T06:53:28.957Z,1.10
2022-12-01T06:56:01.630Z,1.10
2022-12-01T06:58:30.058Z,1.10
2022-12-01T07:00:59.244Z,1.00
2022-12-01T07:03:27.539Z,1.10
2022-12-01T07:06:00.316Z,0.93
2022-12-01T07:08:30.516Z,1.10
2022-12-01T07:11:00.513Z,1.00
2022-12-01T07:13:33.358Z,0.90
2022-12-01T07:16:02.227Z,1.00
2022-12-01T07:18:30.659Z,1.10
2022-12-01T07:21:01.203Z,1.10
2022-12-01T07:23:31.312Z,1.10
2022-12-01T07:26:00.870Z,1.30
2022-12-01T07:28:29.167Z,1.30
2022-12-01T07:31:03.285Z,1.40
2022-12-01T07:33:31.890Z,1.37
2022-12-01T07:36:00.702Z,1.20
2022-12-01T07:38:30.953Z,1.50
2022-12-01T07:41:03.820Z,1.30
2022-12-01T07:43:33.172Z,1.10
2022-12-01T07:46:06.765Z,1.10
2022-12-01T07:48:34.836Z,1.30
2022-12-01T07:51:03.279Z,1.20
2022-12-01T07:53:33.931Z,1.30
2022-12-01T07:56:08.214Z,1.23
2022-12-01T07:58:36.997Z,1.37
2022-12-01T08:01:08.291Z,1.23
2022-12-01T08:03:39.337Z,1.10
2022-12-01T08:06:08.733Z,1.27
2022-12-01T08:08:40.819Z,1.27
2022-12-01T08:11:12.136Z,1.10
2022-12-01T08:13:40.726Z,1.10
2022-12-01T08:16:10.520Z,1.00
2022-12-01T08:18:40.287Z,1.17
2022-12-01T08:21:09.654Z,1.10
2022-12-01T08:23:39.289Z,1.10
2022-12-01T08:26:09.292Z,1.20
2022-12-01T08:28:38.928Z,1.10
2022-12-01T08:31:12.097Z,1.20
2022-12-01T08:33:40.245Z,1.20
2022-12-01T08:36:09.626Z,1.10
2022-12-01T08:38:39.434Z,1.20
2022-12-01T08:41:10.453Z,1.10
2022-12-01T08:43:57.352Z,0.83
2022-12-01T08:46:27.481Z,1.00
2022-12-01T08:48:57.688Z,1.10
2022-12-01T08:51:25.986Z,1.03
2022-12-01T08:53:57.080Z,1.00
2022-12-01T08:56:28.696Z,0.90
2022-12-01T08:58:58.096Z,0.90
2022-12-01T09:01:27.103Z,1.00
2022-12-01T09:04:06.782Z,1.30
2022-12-01T09:06:39.657Z,1.13
2022-12-01T09:09:10.036Z,1.37
2022-12-01T09:11:38.482Z,1.10
2022-12-01T09:14:06.647Z,1.30
2022-12-01T09:16:34.782Z,1.20
2022-12-01T09:19:03.147Z,1.30
2022-12-01T09:21:35.305Z,1.20
2022-12-01T09:24:03.765Z,1.30
2022-12-01T09:26:34.179Z,1.27
2022-12-01T09:29:04.278Z,1.40
2022-12-01T09:31:32.732Z,1.40
2022-12-01T09:39:16.993Z,1.37
2022-12-01T09:41:51.195Z,1.23
2022-12-01T09:44:32.653Z,1.23
2022-12-01T09:47:09.036Z,1.40
2022-12-01T09:49:46.879Z,1.33
2022-12-01T09:52:19.903Z,1.20
2022-12-01T09:54:48.674Z,1.40
2022-12-01T09:57:26.299Z,1.30
2022-12-01T09:59:55.671Z,1.20
2022-12-01T10:02:38.524Z,1.30
2022-12-01T10:05:13.340Z,1.07
2022-12-01T10:07:47.323Z,1.40
2022-12-01T10:10:20.950Z,1.43
2022-12-01T10:12:50.482Z,1.70
2022-12-01T10:15:30.341Z,1.80
2022-12-01T10:18:09.793Z,1.50
2022-12-01T10:20:45.414Z,2.00
2022-12-01T10:23:29.178Z,1.63
2022-12-01T10:25:59.437Z,2.00
2022-12-01T10:28:46.276Z,1.80
2022-12-01T10:31:20.352Z,1.80
2022-12-01T10:34:00.205Z,2.10
2022-12-01T10:36:29.634Z,1.80
2022-12-01T10:38:57.824Z,1.70
2022-12-01T10:41:29.732Z,1.87
2022-12-01T10:44:01.898Z,1.93
2022-12-01T10:46:35.150Z,1.83
2022-12-01T10:49:10.540Z,1.73
2022-12-01T10:51:54.204Z,1.70
2022-12-01T10:54:23.899Z,1.40
2022-12-01T10:56:57.750Z,1.47
2022-12-01T10:59:34.459Z,1.30
2022-12-01T11:02:04.013Z,1.40
2022-12-01T11:04:45.516Z,1.40
2022-12-01T11:07:19.616Z,1.40
2022-12-01T11:09:56.253Z,1.30
2022-12-01T11:12:25.044Z,1.20
2022-12-01T11:14:56.979Z,1.30
2022-12-01T11:17:34.087Z,1.30
2022-12-01T11:20:27.956Z,1.37
2022-12-01T11:23:25.590Z,1.07
2022-12-01T11:26:12.832Z,1.20
2022-12-01T11:28:58.679Z,1.13
2022-12-01T11:31:39.056Z,1.20
2022-12-01T11:34:17.168Z,1.30
2022-12-01T11:36:47.756Z,1.27
2022-12-01T11:39:26.035Z,1.10
2022-12-01T11:41:57.611Z,1.20
2022-12-01T11:44:50.435Z,1.13
2022-12-01T11:47:25.139Z,1.20
2022-12-01T11:49:56.746Z,1.27
2022-12-01T11:52:28.492Z,1.10
2022-12-01T11:54:58.596Z,1.17
2022-12-01T11:57:35.142Z,1.13
2022-12-01T12:00:07.150Z,1.10
2022-12-01T12:02:47.167Z,1.10
2022-12-01T12:06:32.326Z,1.10
2022-12-01T12:09:10.238Z,1.10
2022-12-01T12:11:49.143Z,1.10
2022-12-01T12:14:33.227Z,1.10
2022-12-01T12:17:20.851Z,1.17
2022-12-01T12:20:08.694Z,1.30
2022-12-01T12:22:50.945Z,1.30
2022-12-01T12:25:29.149Z,1.20
2022-12-01T12:28:13.843Z,1.50
2022-12-01T12:30:50.126Z,1.00
2022-12-01T12:33:36.230Z,1.20
2022-12-01T12:36:16.327Z,1.30
2022-12-01T12:38:56.640Z,1.20
2022-12-01T12:41:33.822Z,1.20
2022-12-01T12:44:18.527Z,1.40
2022-12-01T12:46:56.787Z,1.33
2022-12-01T12:49:36.364Z,1.40
2022-12-01T12:52:09.231Z,1.10
2022-12-01T12:54:46.477Z,1.30
2022-12-01T12:57:22.106Z,1.20
2022-12-01T12:59:54.951Z,1.27
2022-12-01T13:02:29.437Z,1.30
2022-12-01T13:05:02.359Z,1.13
2022-12-01T13:07:39.730Z,1.40
2022-12-01T13:10:17.445Z,1.30
2022-12-01T13:12:55.950Z,1.57
2022-12-01T13:15:24.214Z,1.40
2022-12-01T13:17:56.659Z,1.20
2022-12-01T13:20:27.896Z,1.20
2022-12-01T13:22:59.858Z,1.20
2022-12-01T13:25:31.880Z,1.10
2022-12-01T13:28:01.822Z,1.20
2022-12-01T13:30:30.216Z,1.17
2022-12-01T13:33:03.714Z,1.10
2022-12-01T13:35:35.105Z,1.30
2022-12-01T13:38:26.482Z,1.27
2022-12-01T13:41:14.896Z,1.10
2022-12-01T13:43:59.999Z,1.20
2022-12-01T13:46:31.135Z,1.17
2022-12-01T13:49:00.344Z,1.20
2022-12-01T13:51:28.898Z,1.10
2022-12-01T13:54:04.025Z,1.20
2022-12-01T13:56:46.893Z,1.20
2022-12-01T13:59:52.273Z,1.20
2022-12-01T14:02:22.460Z,1.30
2022-12-01T14:04:50.858Z,1.13
2022-12-01T14:07:38.158Z,1.17
2022-12-01T14:10:29.960Z,1.30
2022-12-01T14:13:03.478Z,1.10
2022-12-01T14:15:40.400Z,1.20
2022-12-01T14:18:21.281Z,1.00
2022-12-01T14:20:50.097Z,1.30
2022-12-01T14:23:25.312Z,1.23
2022-12-01T14:26:11.066Z,1.20
2022-12-01T14:29:11.919Z,1.30
2022-12-01T14:32:25.800Z,1.10
2022-12-01T14:35:02.428Z,1.40
2022-12-01T14:37:40.655Z,1.60
2022-12-01T14:40:14.970Z,1.10
2022-12-01T14:43:11.173Z,1.20
2022-12-01T14:45:43.871Z,1.37
2022-12-01T14:48:15.467Z,1.40
2022-12-01T14:50:50.289Z,1.50
2022-12-01T14:53:27.039Z,1.50
2022-12-01T14:55:57.843Z,1.40
2022-12-01T14:58:29.592Z,1.50
2022-12-01T15:01:05.053Z,1.30
2022-12-01T15:03:37.609Z,1.27
2022-12-01T15:06:06.255Z,1.20
2022-12-01T15:08:53.199Z,1.30
2022-12-01T15:11:26.752Z,1.33
2022-12-01T15:13:57.835Z,1.37
2022-12-01T15:16:27.771Z,1.20
2022-12-01T15:18:56.006Z,1.17
2022-12-01T15:21:26.968Z,1.20
2022-12-01T15:23:57.375Z,1.40
2022-12-01T15:26:27.674Z,1.17
2022-12-01T15:29:16.446Z,1.40
2022-12-01T15:31:48.653Z,1.30
2022-12-01T15:34:19.480Z,1.20
2022-12-01T15:36:48.447Z,1.10
2022-12-01T15:39:19.609Z,1.30
2022-12-01T15:41:53.791Z,1.10
2022-12-01T15:44:28.829Z,1.50
2022-12-01T15:46:57.168Z,1.47
2022-12-01T15:49:32.827Z,1.30
2022-12-01T15:52:09.195Z,1.50
2022-12-01T15:54:38.407Z,1.40
2022-12-01T15:57:07.262Z,1.50
2022-12-01T15:59:40.355Z,1.50
2022-12-01T16:02:27.127Z,1.50
2022-12-01T16:05:04.907Z,1.77
2022-12-01T16:08:04.973Z,1.77
2022-12-01T16:10:29.749Z,1.60
2022-12-01T16:13:31.230Z,1.90
2022-12-01T16:16:00.905Z,1.63
2022-12-01T16:18:32.947Z,1.70
2022-12-01T16:21:07.359Z,1.80
2022-12-01T16:23:35.411Z,1.67
2022-12-01T16:26:09.752Z,1.60
2022-12-01T16:28:37.859Z,1.70
2022-12-01T16:31:14.004Z,1.80
2022-12-01T16:33:46.070Z,2.30
2022-12-01T16:36:14.944Z,2.10
2022-12-01T16:38:45.902Z,2.10
2022-12-01T16:41:20.297Z,1.70
2022-12-01T16:44:12.511Z,1.63
2022-12-01T16:46:39.404Z,1.90
2022-12-01T16:49:08.049Z,2.20
2022-12-01T16:51:54.753Z,1.80
2022-12-01T16:54:24.389Z,1.73
2022-12-01T16:56:52.464Z,1.70
2022-12-01T16:59:22.380Z,1.93
2022-12-01T17:01:51.865Z,2.23
2022-12-01T17:04:20.026Z,2.00
2022-12-01T17:06:48.052Z,2.10
2022-12-01T17:09:16.139Z,2.30
2022-12-01T17:11:44.172Z,2.10
2022-12-01T17:14:12.590Z,2.23
2022-12-01T17:16:40.662Z,1.80
2022-12-01T17:19:10.136Z,1.70
2022-12-01T17:21:38.395Z,2.00
2022-12-01T17:24:07.285Z,2.00
2022-12-01T17:26:35.361Z,1.73
2022-12-01T17:29:03.544Z,2.10
2022-12-01T17:31:31.582Z,2.00
2022-12-01T17:34:00.992Z,1.80
2022-12-01T17:36:30.394Z,2.13
2022-12-01T17:38:58.936Z,2.20
2022-12-01T17:41:32.536Z,2.20
2022-12-01T17:44:03.239Z,2.30
2022-12-01T17:46:31.593Z,1.97
2022-12-01T17:49:00.090Z,1.90
2022-12-01T17:51:28.329Z,1.80
2022-12-01T17:53:57.862Z,1.70
2022-12-01T17:56:25.929Z,2.00
2022-12-01T17:58:54.070Z,1.90
2022-12-01T18:01:26.926Z,1.67
2022-12-01T18:03:58.389Z,1.70
2022-12-01T18:06:30.070Z,1.80
2022-12-01T18:09:01.049Z,1.70
2022-12-01T18:11:29.457Z,1.60
2022-12-01T18:13:58.255Z,1.70
2022-12-01T18:16:28.475Z,1.50
2022-12-01T18:18:58.177Z,1.70
2022-12-01T18:21:27.351Z,1.60
2022-12-01T18:23:58.250Z,1.60
2022-12-01T18:26:29.002Z,1.50
2022-12-01T18:28:59.044Z,1.30
2022-12-01T18:31:27.826Z,1.40
2022-12-01T18:33:58.635Z,1.53
2022-12-01T18:36:27.680Z,1.50
2022-12-01T18:38:55.912Z,1.50
2022-12-01T18:41:24.198Z,1.50
2022-12-01T18:43:53.646Z,5.18
2022-12-01T18:46:22.629Z,1.35
2022-12-01T18:48:53.567Z,1.30
2022-12-01T18:51:22.559Z,1.20
2022-12-01T18:53:54.829Z,1.30
2022-12-01T18:56:23.066Z,1.30
2022-12-01T18:58:56.680Z,1.40
2022-12-01T19:01:26.833Z,1.20
2022-12-01T19:03:56.021Z,1.30
2022-12-01T19:06:24.519Z,1.20
2022-12-01T19:08:52.676Z,1.10
2022-12-01T19:11:21.031Z,1.30
2022-12-01T19:13:49.424Z,1.30
2022-12-01T19:16:21.667Z,1.20
2022-12-01T19:18:50.050Z,1.37
2022-12-01T19:21:19.926Z,1.20
2022-12-01T19:23:48.515Z,1.10
2022-12-01T19:26:18.518Z,1.10
2022-12-01T19:28:46.781Z,1.07
2022-12-01T19:31:16.199Z,1.00
2022-12-01T19:33:45.983Z,1.40
2022-12-01T19:36:16.225Z,1.10
2022-12-01T19:38:45.205Z,1.10
2022-12-01T19:41:14.076Z,1.10
2022-12-01T19:43:42.250Z,1.10
2022-12-01T19:46:14.174Z,1.10
2022-12-01T19:48:42.404Z,1.20
2022-12-01T19:51:18.991Z,1.20
2022-12-01T19:53:47.325Z,1.20
2022-12-01T19:56:15.671Z,1.17
2022-12-01T19:58:46.622Z,1.30
2022-12-01T20:01:16.422Z,1.10
2022-12-01T20:03:46.465Z,1.20
2022-12-01T20:06:20.437Z,0.90
2022-12-01T20:08:48.585Z,1.03
2022-12-01T20:11:17.023Z,1.00
2022-12-01T20:13:47.886Z,1.10
2022-12-01T20:16:17.620Z,1.20
2022-12-01T20:18:46.217Z,1.30
2022-12-01T20:21:17.545Z,1.10
2022-12-01T20:23:48.633Z,1.20
2022-12-01T20:26:18.507Z,1.10
2022-12-01T20:28:49.735Z,1.07
2022-12-01T20:31:20.914Z,1.10
2022-12-01T20:33:49.388Z,1.20
2022-12-01T20:36:18.232Z,1.17
2022-12-01T20:38:47.787Z,1.30
2022-12-01T20:41:16.478Z,1.30
2022-12-01T20:43:44.604Z,1.30
2022-12-01T20:46:13.803Z,1.20
2022-12-01T20:48:42.282Z,1.10
2022-12-01T20:51:12.668Z,1.30
2022-12-01T20:53:40.775Z,1.20
2022-12-01T20:56:13.095Z,1.30
2022-12-01T20:58:41.813Z,1.27
2022-12-01T21:01:10.816Z,1.20
2022-12-01T21:03:40.416Z,1.17
2022-12-01T21:06:09.139Z,1.30
2022-12-01T21:08:38.591Z,1.10
2022-12-01T21:11:07.869Z,1.20
2022-12-01T21:13:45.121Z,1.20
2022-12-01T21:16:23.675Z,1.30
2022-12-01T21:18:53.833Z,1.13
2022-12-01T21:21:25.275Z,1.20
2022-12-01T21:24:14.984Z,1.20
2022-12-01T21:26:47.147Z,1.50
2022-12-01T21:29:21.740Z,1.57
2022-12-01T21:31:52.687Z,1.40
2022-12-01T21:34:23.251Z,1.43
2022-12-01T21:36:53.641Z,1.40
2022-12-01T21:39:23.592Z,1.30
2022-12-01T21:41:54.112Z,1.30
2022-12-01T21:44:28.260Z,1.40
2022-12-01T21:46:59.145Z,1.50
2022-12-01T21:49:34.867Z,1.30
2022-12-01T21:52:07.805Z,1.50
2022-12-01T21:54:36.317Z,1.20
2022-12-01T21:57:15.105Z,1.20
2022-12-01T21:59:44.487Z,1.20
2022-12-01T22:02:31.635Z,1.30
2022-12-01T22:05:00.725Z,1.40
2022-12-01T22:07:28.787Z,1.40
2022-12-01T22:09:56.833Z,1.40
2022-12-01T22:12:28.859Z,1.40
2022-12-01T22:15:02.201Z,1.30
2022-12-01T22:17:31.110Z,1.37
2022-12-01T22:20:02.449Z,1.23
2022-12-01T22:22:32.818Z,1.40
2022-12-01T22:25:03.146Z,1.37
2022-12-01T22:27:33.557Z,1.40
2022-12-01T22:30:14.326Z,1.47
2022-12-01T22:32:52.601Z,1.10
2022-12-01T22:35:29.728Z,1.40
2022-12-01T22:38:32.737Z,1.40
2022-12-01T22:41:05.252Z,1.20
2022-12-01T22:43:47.425Z,1.30
2022-12-01T22:46:32.132Z,1.30
2022-12-01T22:49:02.901Z,1.40
2022-12-01T22:51:37.775Z,1.40
2022-12-01T22:54:26.659Z,1.40
2022-12-01T22:57:03.056Z,1.40
2022-12-01T22:59:35.365Z,1.30
2022-12-01T23:02:20.360Z,1.43
2022-12-01T23:04:50.218Z,1.40
2022-12-01T23:07:32.659Z,1.30
2022-12-01T23:10:12.123Z,1.40
2022-12-01T23:12:40.534Z,1.50
2022-12-01T23:15:23.821Z,1.40
2022-12-01T23:17:53.464Z,1.40
2022-12-01T23:20:28.709Z,1.50
2022-12-01T23:22:58.416Z,1.70
2022-12-01T23:25:27.459Z,1.70
2022-12-01T23:27:59.367Z,1.50
2022-12-01T23:30:27.651Z,1.60
2022-12-01T23:33:07.154Z,1.60
2022-12-01T23:35:40.801Z,1.53
2022-12-01T23:38:17.049Z,1.60
2022-12-01T23:40:48.330Z,1.53
2022-12-01T23:43:22.050Z,1.70
2022-12-01T23:45:52.484Z,1.70
2022-12-01T23:48:28.720Z,1.80
2022-12-01T23:50:56.931Z,1.70
2022-12-01T23:53:30.365Z,1.70
2022-12-01T23:56:02.801Z,1.60
2022-12-01T23:58:30.898Z,1.70
